Flight Track Log - Related Links

Times and Time Zones

All times are in EDT time to prevent confusion due to time zone crossing. See the AAL1144 flight status page for this flight to view local times or setup timezone preferences in your user account.

Time Position Orientation Groundspeed Altitude Reporting Facility
EDT Latitude Longitude Course Direction KTS MPH feet Rate Location/Type
Thu 08:15:32 PM 33.6530 -117.8820 202° Southwest 171 197 1,100  Level FlightAware ADS-B
Thu 08:16:02 PM 33.6270 -117.8910 196° South 212 244 1,700 1,300 Climbing FlightAware ADS-B
Thu 08:16:32 PM 33.5940 -117.8960 187° South 256 295 2,400 2,314 Climbing FlightAware ADS-B
Thu 08:17:12 PM 33.5480 -117.8810 165° South 262 302 4,400 2,945 Climbing FlightAware ADS-B
Thu 08:17:27 PM 33.5400 -117.8610 116° Southeast 264 304 5,100 3,164 Climbing FlightAware ADS-B
Thu 08:18:07 PM 33.5440 -117.8030 85° East 264 304 7,300 3,257 Climbing FlightAware ADS-B
Thu 08:18:37 PM 33.5470 -117.7590 85° East 266 306 8,900 2,836 Climbing FlightAware ADS-B
Thu 08:19:02 PM 33.5510 -117.7210 83° East 282 325 9,900 1,886 Climbing FlightAware ADS-B
Thu 08:19:47 PM 33.5620 -117.6480 80° East 327 376 11,100 1,906 Climbing FlightAware ADS-B
Thu 08:20:27 PM 33.5720 -117.5730 81° East 345 397 12,600 2,400 Climbing FlightAware ADS-B
Thu 08:21:12 PM 33.5820 -117.4890 82° East 360 414 14,500 2,259 Climbing FlightAware ADS-B
Thu 08:21:52 PM 33.5860 -117.4080 87° East 381 438 15,800 2,325 Climbing FlightAware ADS-B
Thu 08:22:32 PM 33.5890 -117.3220 88° East 386 444 17,600 2,753 Climbing FlightAware ADS-B
Thu 08:23:17 PM 33.5930 -117.2220 87° East 389 448 19,700 2,471 Climbing FlightAware ADS-B
Thu 08:23:57 PM 33.5960 -117.1350 88° East 401 461 21,100 1,976 Climbing FlightAware ADS-B
Thu 08:24:42 PM 33.6000 -117.0340 87° East 415 478 22,500 1,835 Climbing FlightAware ADS-B
Thu 08:25:22 PM 33.6030 -116.9390 88° East 424 488 23,700 1,575 Climbing FlightAware ADS-B
Thu 08:26:02 PM 33.6070 -116.8430 87° East 444 511 24,600 1,129 Climbing FlightAware ADS-B
Thu 08:26:47 PM 33.6100 -116.7330 88° East 464 534 25,300 1,200 Climbing FlightAware ADS-B
Thu 08:27:27 PM 33.6140 -116.6300 87° East 471 542 26,300 1,482 Climbing FlightAware ADS-B
Thu 08:28:12 PM 33.6170 -116.5100 88° East 478 550 27,400 1,360 Climbing FlightAware ADS-B
Thu 08:28:42 PM 33.6200 -116.4350 87° East 484 557 28,000 847 Climbing FlightAware ADS-B
Thu 08:29:37 PM 33.6250 -116.2860 88° East 490 564 28,600 379 Climbing FlightAware ADS-B
Thu 08:30:17 PM 33.6290 -116.1930 87° East 490 564 28,600  Level FlightAware ADS-B
Thu 08:30:57 PM 33.6330 -116.1010 87° East 490 564 28,600 2,400 Level FlightAware ADS-B
Thu 08:31:42 PM 33.6980 -115.9540 62° Northeast 491 565 32,000 2,340 Climbing FlightAware ADS-B
Thu 08:32:37 PM 33.7400 -115.8280 68° East 490 564 32,500 316 Climbing FlightAware ADS-B
Thu 08:33:17 PM 33.7690 -115.7430 68° East 490 564 32,500  Level FlightAware ADS-B
Thu 08:33:57 PM 33.7970 -115.6570 69° East 490 564 32,500  Level FlightAware ADS-B
Thu 08:34:37 PM 33.8260 -115.5710 68° East 490 564 32,500  Level FlightAware ADS-B
Thu 08:35:17 PM 33.8550 -115.4840 68° East 490 564 32,500  Level FlightAware ADS-B
Thu 08:36:07 PM 33.8910 -115.3770 68° East 490 564 32,500  Level FlightAware ADS-B
Thu 08:36:47 PM 33.9200 -115.2910 68° East 490 564 32,500 2,700 Level FlightAware ADS-B
Thu 08:37:47 PM 33.9820 -115.0950 69° East 479 551 37,000 2,700 Climbing FlightAware ADS-B
Thu 08:38:27 PM 34.0100 -115.0110 68° East 479 551 37,000  Level FlightAware ADS-B
Thu 08:39:07 PM 34.0390 -114.9260 68° East 479 551 37,000  Level FlightAware ADS-B
Thu 08:39:47 PM 34.0670 -114.8420 68° East 479 551 37,000  Level FlightAware ADS-B
Thu 08:40:27 PM 34.0950 -114.7580 68° East 479 551 37,000  Level FlightAware ADS-B
Thu 08:41:12 PM 34.1520 -114.5660 70° East 481 554 37,000  Level FlightAware ADS-B
Thu 08:41:57 PM 34.1920 -114.4430 69° East 480 552 37,000  Level FlightAware ADS-B
Thu 08:42:37 PM 34.2220 -114.3500 69° East 479 551 37,000  Level FlightAware ADS-B
Thu 08:43:22 PM 34.2590 -114.2330 69° East 478 550 37,000  Level FlightAware ADS-B
Thu 08:44:02 PM 34.2900 -114.1330 69° East 477 549 37,000  Level FlightAware ADS-B
Thu 08:44:47 PM 34.3260 -114.0200 69° East 475 547 37,000  Level FlightAware ADS-B
Thu 08:45:27 PM 34.3560 -113.9240 69° East 475 547 37,000  Level FlightAware ADS-B
Thu 08:46:07 PM 34.3920 -113.8090 69° East 474 545 37,000  Level FlightAware ADS-B
Thu 08:46:42 PM 34.4200 -113.7170 70° East 475 547 37,000  Level FlightAware ADS-B
Thu 08:47:32 PM 34.4590 -113.5920 69° East 475 547 37,000  Level FlightAware ADS-B
Thu 08:48:17 PM 34.4940 -113.4820 69° East 477 549 37,000  Level FlightAware ADS-B
Thu 08:48:57 PM 34.5240 -113.3840 70° East 479 551 37,000  Level FlightAware ADS-B
Thu 08:49:37 PM 34.5550 -113.2830 70° East 479 551 37,000  Level FlightAware ADS-B
Thu 08:50:22 PM 34.5910 -113.1650 70° East 479 551 37,000  Level FlightAware ADS-B
Thu 08:51:02 PM 34.6220 -113.0650 69° East 479 551 37,000  Level FlightAware ADS-B
Thu 08:51:42 PM 34.6520 -112.9640 70° East 479 551 37,000  Level FlightAware ADS-B
Thu 08:52:27 PM 34.6840 -112.8580 70° East 479 551 37,000  Level FlightAware ADS-B
Thu 08:53:07 PM 34.7160 -112.7530 70° East 478 550 37,000  Level FlightAware ADS-B
Thu 08:53:52 PM 34.7510 -112.6370 70° East 478 550 37,000  Level FlightAware ADS-B
Thu 08:54:32 PM 34.7810 -112.5350 70° East 477 549 37,000  Level FlightAware ADS-B
Thu 08:55:17 PM 34.8140 -112.4240 70° East 477 549 37,000  Level FlightAware ADS-B
Thu 08:55:57 PM 34.8440 -112.3230 70° East 476 548 37,000  Level FlightAware ADS-B
Thu 08:56:37 PM 34.8730 -112.2210 71° East 476 548 37,000  Level FlightAware ADS-B
Thu 08:57:22 PM 34.9070 -112.1070 70° East 475 547 37,000  Level FlightAware ADS-B
Thu 08:58:02 PM 34.9350 -112.0110 70° East 476 548 37,000  Level FlightAware ADS-B
Thu 08:58:47 PM 34.9690 -111.8930 71° East 476 548 37,000  Level FlightAware ADS-B
Thu 08:59:27 PM 34.9960 -111.8020 70° East 477 549 37,000  Level FlightAware ADS-B
Thu 09:00:07 PM 35.0260 -111.6970 71° East 476 548 37,000  Level FlightAware ADS-B
Thu 09:00:52 PM 35.0600 -111.5790 71° East 477 549 37,000  Level FlightAware ADS-B
Thu 09:01:32 PM 35.0880 -111.4800 71° East 478 550 37,000  Level FlightAware ADS-B
Thu 09:02:12 PM 35.1160 -111.3830 71° East 479 551 37,000  Level FlightAware ADS-B
Thu 09:02:57 PM 35.1450 -111.2820 71° East 479 551 37,000  Level FlightAware ADS-B
Thu 09:03:27 PM 35.1660 -111.2060 71° East 479 551 37,000  Level FlightAware ADS-B
Thu 09:04:17 PM 35.2020 -111.0780 71° East 481 554 37,000  Level FlightAware ADS-B
Thu 09:05:02 PM 35.2360 -110.9600 71° East 481 554 37,000  Level FlightAware ADS-B
Thu 09:05:37 PM 35.2610 -110.8700 71° East 481 554 37,000  Level FlightAware ADS-B
Thu 09:06:17 PM 35.2910 -110.7610 71° East 481 554 37,000  Level FlightAware ADS-B
Thu 09:06:57 PM 35.3180 -110.6630 71° East 481 554 37,000  Level FlightAware ADS-B
Thu 09:07:57 PM 35.3600 -110.5140 71° East 480 552 37,000  Level FlightAware ADS-B
Thu 09:08:47 PM 35.3900 -110.4040 71° East 480 552 37,000  Level FlightAware ADS-B
Thu 09:09:27 PM 35.4150 -110.3170 71° East 480 552 37,000  Level FlightAware ADS-B
Thu 09:10:07 PM 35.4400 -110.2290 71° East 480 552 37,000  Level FlightAware ADS-B
Thu 09:10:47 PM 35.4640 -110.1420 71° East 480 552 37,000  Level FlightAware ADS-B
Thu 09:11:27 PM 35.4890 -110.0540 71° East 480 552 37,000  Level FlightAware ADS-B
Thu 09:12:17 PM 35.5200 -109.9440 71° East 480 552 37,000  Level FlightAware ADS-B
Thu 09:12:57 PM 35.5440 -109.8570 71° East 480 552 37,000  Level FlightAware ADS-B
Thu 09:13:37 PM 35.5690 -109.7690 71° East 480 552 37,000  Level FlightAware ADS-B
Thu 09:14:17 PM 35.5930 -109.6810 71° East 480 552 37,000  Level FlightAware ADS-B
Thu 09:14:57 PM 35.6180 -109.5930 71° East 480 552 37,000  Level FlightAware ADS-B
Thu 09:15:47 PM 35.6490 -109.4830 71° East 480 552 37,000  Level FlightAware ADS-B
Thu 09:16:27 PM 35.6730 -109.3960 71° East 480 552 37,000  Level FlightAware ADS-B
Thu 09:16:57 PM 35.6920 -109.3300 70° East 480 552 37,000  Level FlightAware ADS-B
Thu 09:19:17 PM 35.8260 -108.7150 75° East 488 562 37,000  Level FlightAware ADS-B
Thu 09:19:52 PM 35.8460 -108.6310 74° East 488 562 37,000  Level FlightAware ADS-B
Thu 09:20:42 PM 35.8740 -108.5180 73° East 488 562 37,000  Level FlightAware ADS-B
Thu 09:21:22 PM 35.8970 -108.4280 72° East 488 562 37,000  Level FlightAware ADS-B
Thu 09:22:02 PM 35.9340 -108.2720 74° East 487 560 37,000  Level FlightAware ADS-B
Thu 09:22:42 PM 35.9590 -108.1680 73° East 483 556 37,000  Level FlightAware ADS-B
Thu 09:23:27 PM 35.9880 -108.0520 73° East 480 552 37,000  Level FlightAware ADS-B
Thu 09:24:07 PM 36.0080 -107.9430 77° East 488 562 37,000  Level FlightAware ADS-B
Thu 09:24:52 PM 36.0250 -107.8220 80° East 487 560 37,000  Level FlightAware ADS-B
Thu 09:25:32 PM 36.0410 -107.7100 80° East 487 560 37,000  Level FlightAware ADS-B
Thu 09:26:17 PM 36.0580 -107.5870 80° East 487 560 37,000  Level FlightAware ADS-B
Thu 09:26:57 PM 36.0730 -107.4790 80° East 487 560 37,000  Level FlightAware ADS-B
Thu 09:27:37 PM 36.0880 -107.3670 81° East 487 560 37,000  Level FlightAware ADS-B
Thu 09:28:22 PM 36.1120 -107.2470 76° East 474 545 37,000  Level FlightAware ADS-B
Thu 09:28:57 PM 36.1400 -107.1670 67° East 470 541 37,000  Level FlightAware ADS-B
Thu 09:29:47 PM 36.1830 -107.0450 66° East 471 542 37,000  Level FlightAware ADS-B
Thu 09:30:22 PM 36.2130 -106.9630 66° East 471 542 37,000  Level FlightAware ADS-B
Thu 09:31:02 PM 36.2430 -106.8790 66° East 471 542 37,000  Level FlightAware ADS-B
Thu 09:32:07 PM 36.3030 -106.7060 67° East 472 543 37,000  Level FlightAware ADS-B
Thu 09:32:42 PM 36.3360 -106.6110 67° East 466 536 37,000  Level FlightAware ADS-B
Thu 09:33:22 PM 36.3650 -106.5280 67° East 466 536 37,000  Level FlightAware ADS-B
Thu 09:34:12 PM 36.4030 -106.4240 66° East 466 536 37,000  Level FlightAware ADS-B
Thu 09:34:52 PM 36.4320 -106.3410 67° East 466 536 37,000  Level FlightAware ADS-B
Thu 09:35:32 PM 36.4620 -106.2580 66° East 466 536 37,000  Level FlightAware ADS-B
Thu 09:36:12 PM 36.4920 -106.1740 66° East 466 536 37,000  Level FlightAware ADS-B
Thu 09:36:52 PM 36.5220 -106.0910 66° East 466 536 37,000  Level FlightAware ADS-B
Thu 09:37:42 PM 36.5590 -105.9870 66° East 466 536 37,000  Level FlightAware ADS-B
Thu 09:38:22 PM 36.5890 -105.9030 66° East 466 536 37,000  Level FlightAware ADS-B
Thu 09:39:02 PM 36.6190 -105.8200 66° East 466 536 37,000  Level FlightAware ADS-B
Thu 09:39:42 PM 36.6490 -105.7370 66° East 466 536 37,000  Level FlightAware ADS-B
Thu 09:40:22 PM 36.6780 -105.6530 67° East 466 536 37,000  Level FlightAware ADS-B
Thu 09:41:12 PM 36.7160 -105.5490 65° Northeast 466 536 37,000  Level FlightAware ADS-B
Thu 09:41:52 PM 36.7450 -105.4650 67° East 466 536 37,000 1,558 Level FlightAware ADS-B
Thu 09:42:29 PM 36.8231 -105.1761 67° East 485 558 39,000 310 Climbing Denver Center
Thu 09:48:19 PM 37.1179 -104.2670 67° East 462 532 39,000  Level FlightAware ADS-B
Thu 09:48:54 PM 37.1452 -104.1810 68° East 465 535 39,000  Level FlightAware ADS-B
Thu 09:49:24 PM 37.1693 -104.1050 68° East 463 533 39,000  Level FlightAware ADS-B
Thu 09:50:00 PM 37.1978 -104.0150 68° East 465 535 39,000  Level FlightAware ADS-B
Thu 09:50:31 PM 37.2223 -103.9380 68° East 465 535 39,000  Level FlightAware ADS-B
Thu 09:51:04 PM 37.2483 -103.8560 68° East 462 532 39,000  Level FlightAware ADS-B
Thu 09:51:49 PM 37.2833 -103.7450 68° East 460 529 39,000  Level FlightAware ADS-B
Thu 09:52:19 PM 37.3069 -103.6700 68° East 458 527 39,000  Level FlightAware ADS-B
Thu 09:52:49 PM 37.3304 -103.5950 68° East 458 527 39,000  Level FlightAware ADS-B
Thu 09:53:20 PM 37.3540 -103.5210 68° East 457 526 39,000  Level FlightAware ADS-B
Thu 09:53:53 PM 37.3793 -103.4400 69° East 458 527 39,000  Level FlightAware ADS-B
Thu 09:54:23 PM 37.4028 -103.3630 69° East 460 529 39,000  Level FlightAware ADS-B
Thu 09:54:54 PM 37.4263 -103.2870 69° East 460 529 39,000  Level FlightAware ADS-B
Thu 09:55:24 PM 37.4498 -103.2120 68° East 459 528 39,000  Level FlightAware ADS-B
Thu 09:55:55 PM 37.4733 -103.1350 69° East 461 531 39,000  Level FlightAware ADS-B
Thu 09:56:25 PM 37.4964 -103.0600 69° East 463 533 39,000  Level FlightAware ADS-B
Thu 09:56:55 PM 37.5196 -102.9850 69° East 466 536 39,000  Level FlightAware ADS-B
Thu 09:57:26 PM 37.5431 -102.9080 69° East 466 536 39,000  Level FlightAware ADS-B
Thu 09:57:56 PM 37.5664 -102.8320 69° East 466 536 39,000  Level FlightAware ADS-B
Thu 09:58:26 PM 37.5895 -102.7550 69° East 468 539 39,000  Level FlightAware ADS-B
Thu 09:58:56 PM 37.6131 -102.6780 69° East 471 542 39,000  Level FlightAware ADS-B
Thu 09:59:27 PM 37.6368 -102.6000 69° East 474 545 39,000  Level FlightAware ADS-B
Thu 09:59:57 PM 37.6609 -102.5200 69° East 475 547 39,000  Level FlightAware ADS-B
Thu 10:00:28 PM 37.6842 -102.4420 69° East 476 548 39,000  Level FlightAware ADS-B
Thu 10:00:57 PM 37.7069 -102.3660 69° East 475 547 39,000  Level FlightAware ADS-B
Thu 10:01:27 PM 37.7304 -102.2870 69° East 475 547 39,000  Level FlightAware ADS-B
Thu 10:01:58 PM 37.7538 -102.2090 69° East 468 539 39,000  Level FlightAware ADS-B
Thu 10:02:30 PM 37.7778 -102.1280 69° East 467 537 39,000  Level FlightAware ADS-B
Thu 10:03:00 PM 37.8009 -102.0510 69° East 468 539 39,000  Level FlightAware ADS-B
Thu 10:03:30 PM 37.8238 -101.9740 69° East 469 540 39,000  Level FlightAware ADS-B
Thu 10:04:03 PM 37.8486 -101.8900 69° East 470 541 39,000  Level FlightAware ADS-B
Thu 10:04:35 PM 37.8727 -101.8080 70° East 470 541 39,000  Level FlightAware ADS-B
Thu 10:05:05 PM 37.8956 -101.7290 70° East 473 544 39,000  Level FlightAware ADS-B
Thu 10:05:37 PM 37.9197 -101.6470 70° East 475 547 39,000  Level FlightAware ADS-B
Thu 10:06:14 PM 37.9453 -101.5586 70° East 474 545 39,000  Level Denver Center
Thu 10:07:16 PM 37.9897 -101.4067 70° East 478 550 39,000  Level Denver Center
Thu 10:08:18 PM 38.0419 -101.2267 70° East 484 557 39,000  Level Denver Center
Thu 10:09:20 PM 38.0861 -101.0708 70° East 486 559 39,000  Level Denver Center
Thu 10:10:22 PM 38.1300 -100.9144 70° East 488 562 39,000  Level Denver Center
Thu 10:11:23 PM 38.1811 -100.7339 70° East 485 558 39,000  Level Denver Center
Thu 10:12:25 PM 38.2236 -100.5814 70° East 479 551 39,000  Level Denver Center
Thu 10:12:46 PM 38.2375 -100.5292 71° East 479 551 39,000  Level Kansas City Center
Thu 10:13:47 PM 38.2878 -100.3500 70° East 479 551 39,000  Level Kansas City Center
Thu 10:14:48 PM 38.3294 -100.1972 71° East 478 550 39,000  Level Kansas City Center
Thu 10:15:49 PM 38.3719 -100.0447 70° East 477 549 39,000  Level Kansas City Center
Thu 10:16:32 PM 38.4072 -99.9203 70° East 474 545 39,000  Level Denver Center
Thu 10:16:50 PM 38.4197 -99.8675 73° East 474 545 39,000  Level Kansas City Center
Thu 10:17:51 PM 38.4608 -99.7158 71° East 473 544 39,000  Level Kansas City Center
Thu 10:18:53 PM 38.5017 -99.5642 71° East 473 544 39,000  Level Kansas City Center
Thu 10:19:54 PM 38.5453 -99.4025 71° East 477 549 39,000  Level Kansas City Center
Thu 10:20:55 PM 38.5883 -99.2436 71° East 473 544 39,000  Level Kansas City Center
Thu 10:21:56 PM 38.6317 -99.0819 71° East 478 550 39,000  Level Kansas City Center
Thu 10:22:57 PM 38.6753 -98.9183 71° East 484 557 39,000  Level Kansas City Center
Thu 10:23:59 PM 38.7272 -98.7231 71° East 482 555 39,000  Level Kansas City Center
Thu 10:25:00 PM 38.7689 -98.5594 72° East 482 555 39,000  Level Kansas City Center
Thu 10:26:01 PM 38.8111 -98.3967 72° East 481 554 39,000  Level Kansas City Center
Thu 10:31:37 PM 39.0390 -97.4990 72° East 476 548 39,000  Level FlightAware ADS-B
Thu 10:32:17 PM 39.0630 -97.4050 72° East 476 548 39,000  Level FlightAware ADS-B
Thu 10:32:57 PM 39.0860 -97.3130 72° East 476 548 39,000  Level FlightAware ADS-B
Thu 10:33:37 PM 39.1090 -97.2210 72° East 476 548 39,000  Level FlightAware ADS-B
Thu 10:34:17 PM 39.1320 -97.1290 72° East 476 548 39,000  Level FlightAware ADS-B
Thu 10:35:07 PM 39.1610 -97.0150 72° East 476 548 39,000  Level FlightAware ADS-B
Thu 10:35:47 PM 39.1840 -96.9230 72° East 476 548 39,000  Level FlightAware ADS-B
Thu 10:36:27 PM 39.2070 -96.8310 72° East 476 548 39,000  Level FlightAware ADS-B
Thu 10:37:07 PM 39.2300 -96.7390 72° East 476 548 39,000  Level FlightAware ADS-B
Thu 10:37:47 PM 39.2530 -96.6470 72° East 476 548 39,000  Level FlightAware ADS-B
Thu 10:41:02 PM 39.3920 -96.0320 74° East 482 555 39,000  Level FlightAware ADS-B
Thu 10:44:37 PM 39.5480 -95.3520 73° East 487 560 39,000  Level FlightAware ADS-B
Thu 10:45:22 PM 39.5760 -95.2270 74° East 488 562 39,000  Level FlightAware ADS-B
Thu 10:46:02 PM 39.6020 -95.1120 74° East 490 564 39,000  Level FlightAware ADS-B
Thu 10:46:47 PM 39.6300 -94.9870 74° East 490 564 39,000  Level FlightAware ADS-B
Thu 10:47:27 PM 39.6550 -94.8740 74° East 491 565 39,000  Level FlightAware ADS-B
Thu 10:48:12 PM 39.6840 -94.7440 74° East 491 565 39,000  Level FlightAware ADS-B
Thu 10:48:52 PM 39.7090 -94.6310 74° East 491 565 39,000  Level FlightAware ADS-B
Thu 10:49:37 PM 39.7360 -94.5070 74° East 490 564 39,000  Level FlightAware ADS-B
Thu 10:50:17 PM 39.7600 -94.3950 74° East 488 562 39,000  Level FlightAware ADS-B
Thu 10:51:02 PM 39.7880 -94.2640 74° East 485 558 39,000  Level FlightAware ADS-B
Thu 10:51:42 PM 39.8130 -94.1520 74° East 484 557 39,000  Level FlightAware ADS-B
Thu 10:52:27 PM 39.8390 -94.0290 75° East 482 555 39,000  Level FlightAware ADS-B
Thu 10:53:07 PM 39.8630 -93.9170 74° East 483 556 39,000  Level FlightAware ADS-B
Thu 10:53:47 PM 39.8910 -93.8070 72° East 489 563 39,000  Level FlightAware ADS-B
Thu 10:54:32 PM 39.9280 -93.6790 69° East 489 563 39,000  Level FlightAware ADS-B
Thu 10:55:12 PM 39.9590 -93.5700 70° East 488 562 39,000  Level FlightAware ADS-B
Thu 10:55:52 PM 39.9910 -93.4590 69° East 487 560 39,000  Level FlightAware ADS-B
Thu 10:56:37 PM 40.0250 -93.3370 70° East 485 558 39,000  Level FlightAware ADS-B
Thu 10:57:17 PM 40.0550 -93.2300 70° East 482 555 39,000  Level FlightAware ADS-B
Thu 10:58:02 PM 40.0910 -93.1040 69° East 481 554 39,000  Level FlightAware ADS-B
Thu 10:58:42 PM 40.1220 -92.9940 70° East 479 551 39,000  Level FlightAware ADS-B
Thu 10:59:37 PM 40.1620 -92.8540 69° East 478 550 39,000  Level FlightAware ADS-B
Thu 11:00:22 PM 40.1980 -92.7240 70° East 478 550 39,000  Level FlightAware ADS-B
Thu 11:01:02 PM 40.2270 -92.6170 70° East 477 549 39,000  Level FlightAware ADS-B
Thu 11:01:42 PM 40.2570 -92.5070 70° East 477 549 39,000  Level FlightAware ADS-B
Thu 11:02:27 PM 40.2900 -92.3880 70° East 477 549 39,000  Level FlightAware ADS-B
Thu 11:03:07 PM 40.3190 -92.2790 71° East 476 548 39,000  Level FlightAware ADS-B
Thu 11:03:47 PM 40.3460 -92.1800 70° East 477 549 39,000  Level FlightAware ADS-B
Thu 11:04:32 PM 40.3810 -92.0510 70° East 478 550 39,000  Level FlightAware ADS-B
Thu 11:05:12 PM 40.4110 -91.9380 71° East 477 549 39,000  Level FlightAware ADS-B
Thu 11:05:57 PM 40.4440 -91.8160 70° East 476 548 39,000  Level FlightAware ADS-B
Thu 11:06:47 PM 40.4800 -91.6850 70° East 476 548 39,000  Level FlightAware ADS-B
Thu 11:07:37 PM 40.5170 -91.5430 71° East 473 544 39,000  Level FlightAware ADS-B
Thu 11:08:17 PM 40.5450 -91.4340 71° East 471 542 39,000  Level FlightAware ADS-B
Thu 11:08:57 PM 40.5780 -91.3310 67° East 475 547 39,000  Level FlightAware ADS-B
Thu 11:09:42 PM 40.6190 -91.2110 66° East 474 545 39,000  Level FlightAware ADS-B
Thu 11:10:17 PM 40.6500 -91.1220 65° Northeast 473 544 39,000  Level FlightAware ADS-B
Thu 11:10:57 PM 40.6870 -91.0120 66° East 474 545 39,000  Level FlightAware ADS-B
Thu 11:11:42 PM 40.7270 -90.8950 66° East 474 545 39,000  Level FlightAware ADS-B
Thu 11:12:22 PM 40.7630 -90.7900 66° East 475 547 39,000  Level FlightAware ADS-B
Thu 11:13:02 PM 40.7980 -90.6860 66° East 476 548 39,000  Level FlightAware ADS-B
Thu 11:13:47 PM 40.8390 -90.5630 66° East 477 549 39,000 -71 Level FlightAware ADS-B
Thu 11:14:27 PM 40.8750 -90.4560 66° East 479 551 38,900 -525 Descending FlightAware ADS-B
Thu 11:15:07 PM 40.9090 -90.3540 66° East 480 552 38,300 -1,412 Descending FlightAware ADS-B
Thu 11:15:52 PM 40.9500 -90.2290 66° East 480 552 36,900 -2,400 Descending FlightAware ADS-B
Thu 11:16:32 PM 40.9860 -90.1200 66° East 485 558 34,900 -3,035 Descending FlightAware ADS-B
Thu 11:17:17 PM 41.0250 -90.0010 66° East 491 565 32,600 -3,247 Descending FlightAware ADS-B
Thu 11:17:57 PM 41.0630 -89.8860 66° East 494 568 30,300 -3,225 Descending FlightAware ADS-B
Thu 11:18:37 PM 41.0970 -89.7820 67° East 488 562 28,300 -2,775 Descending FlightAware ADS-B
Thu 11:19:17 PM 41.1330 -89.6710 67° East 475 547 26,600 -2,753 Descending FlightAware ADS-B
Thu 11:20:02 PM 41.1740 -89.5530 65° Northeast 472 543 24,400 -2,533 Descending FlightAware ADS-B
Thu 11:20:47 PM 41.2210 -89.4370 62° Northeast 450 518 22,800 -2,118 Descending FlightAware ADS-B
Thu 11:21:27 PM 41.2590 -89.3410 62° Northeast 431 496 21,400 -2,188 Descending FlightAware ADS-B
Thu 11:22:12 PM 41.3000 -89.2390 62° Northeast 417 480 19,700 -2,329 Descending FlightAware ADS-B
Thu 11:22:52 PM 41.3440 -89.1560 55° Northeast 415 478 18,100 -2,250 Descending FlightAware ADS-B
Thu 11:23:32 PM 41.3980 -89.0890 43° Northeast 403 464 16,700 -2,047 Descending FlightAware ADS-B
Thu 11:24:17 PM 41.4590 -89.0150 42° Northeast 388 447 15,200 -1,976 Descending FlightAware ADS-B
Thu 11:24:57 PM 41.5070 -88.9460 47° Northeast 378 435 13,900 -1,976 Descending FlightAware ADS-B
Thu 11:25:42 PM 41.5600 -88.8680 48° Northeast 366 421 12,400 -1,976 Descending FlightAware ADS-B
Thu 11:26:22 PM 41.6020 -88.7980 51° Northeast 353 406 11,100 -1,745 Descending FlightAware ADS-B
Thu 11:26:37 PM 41.6060 -88.7660 80° East 343 395 10,800 -436 Descending FlightAware ADS-B
Thu 11:27:17 PM 41.5940 -88.6940 103° East 293 337 10,700 -71 Descending FlightAware ADS-B
Thu 11:28:02 PM 41.5790 -88.6200 105° East 280 322 10,700 71 Level FlightAware ADS-B
Thu 11:28:42 PM 41.5820 -88.5490 87° East 288 331 10,800 75 Climbing FlightAware ADS-B
Thu 11:29:22 PM 41.6040 -88.4810 67° East 300 345 10,800  Level FlightAware ADS-B
Thu 11:30:07 PM 41.6450 -88.4170 49° Northeast 301 346 10,800 -494 Level FlightAware ADS-B
Thu 11:30:47 PM 41.6820 -88.3620 48° Northeast 302 348 10,100 -1,114 Descending FlightAware ADS-B
Thu 11:31:17 PM 41.7100 -88.3210 48° Northeast 293 337 9,500 -1,200 Descending FlightAware ADS-B
Thu 11:31:42 PM 41.7360 -88.2910 41° Northeast 297 342 9,000 -900 Descending FlightAware ADS-B
Thu 11:31:57 PM 41.7540 -88.2830 18° North 292 336 8,900 -400 Descending FlightAware ADS-B
Thu 11:32:27 PM 41.7930 -88.2840 359° North 271 312 8,700 -764 Descending FlightAware ADS-B
Thu 11:32:52 PM 41.8250 -88.2870 356° North 258 297 8,200 -1,418 Descending FlightAware ADS-B
Thu 11:33:22 PM 41.8590 -88.2900 356° North 254 292 7,400 -1,700 Descending FlightAware ADS-B
Thu 11:33:52 PM 41.8950 -88.2930 356° North 256 295 6,500 -1,745 Descending FlightAware ADS-B
Thu 11:34:17 PM 41.9220 -88.2830 15° North 250 288 5,800 -1,650 Descending FlightAware ADS-B
Thu 11:34:32 PM 41.9350 -88.2710 34° Northeast 247 284 5,400 -1,543 Descending FlightAware ADS-B
Thu 11:34:52 PM 41.9520 -88.2550 35° Northeast 239 275 4,900 -1,500 Descending FlightAware ADS-B
Thu 11:35:12 PM 41.9640 -88.2290 58° Northeast 229 264 4,400 -1,371 Descending FlightAware ADS-B
Thu 11:35:27 PM 41.9680 -88.2050 77° East 213 245 4,100 -750 Descending FlightAware ADS-B
Thu 11:35:52 PM 41.9680 -88.1760 90° East 209 241 3,900 -764 Descending FlightAware ADS-B
Thu 11:36:22 PM 41.9680 -88.1330 90° East 208 239 3,400 -1,091 Descending FlightAware ADS-B
Thu 11:36:47 PM 41.9680 -88.1020 90° East 203 234 2,900 -1,000 Descending FlightAware ADS-B
Thu 11:37:22 PM 41.9680 -88.0620 90° East 168 193 2,400 -840 Descending FlightAware ADS-B
Thu 11:37:37 PM 41.9680 -88.0500 90° East 157 181 2,200 -900 Descending FlightAware ADS-B
Thu 11:38:02 PM 41.9690 -88.0250 87° East 138 159 1,800 -738 Descending FlightAware ADS-B
Thu 11:38:42 PM 41.9690 -87.9940 90° East 131 151 1,400 -695 Descending FlightAware ADS-B
Thu 11:39:37 PM 41.9690 -87.9470 90° East 135 155 700 -800 Descending FlightAware ADS-B
Thu 11:39:57 PM 41.9690 -87.9300 90° East 132 152 400 -360 Descending FlightAware ADS-B
Thu 11:40:27 PM 41.9690 -87.9060 90° East 135 155 400  Level FlightAware ADS-B

Login

Don't have an account? Register now (free) for customized features, flight alerts, and more!